Time;durP1;ratioP1;P1;durP2;ratioP2;P2;SDS_P1;SDS_P2;PMS_P1;PMS_P2;Temp;Humidity;BMP_temperature;BMP_pressure;BME280_temperature;BME280_humidity;BME280_pressure;Samples;Min_cycle;Max_cycle;Signal;HPM_P1;HPM_P2
2022/12/02 00:01:48;;;;;;;17.27;8.68;;;;;;;-3.09;100.00;100908.92;1741122;82;21107;-64
2022/12/02 00:04:25;;;;;;;16.42;8.45;;;;;;;-3.05;100.00;100914.77;1742354;82;21012;-64
2022/12/02 00:06:54;;;;;;;14.90;8.15;;;;;;;-3.07;100.00;100906.08;1676426;85;21059;-63
2022/12/02 00:09:31;;;;;;;16.42;8.85;;;;;;;-3.06;100.00;100899.28;1676184;85;21068;-63
2022/12/02 00:11:59;;;;;;;17.50;8.70;;;;;;;-3.03;100.00;100896.78;1676366;85;21479;-63
2022/12/02 00:14:28;;;;;;;15.98;8.13;;;;;;;-2.99;100.00;100898.64;1676202;85;21606;-64
2022/12/02 00:16:56;;;;;;;18.98;8.48;;;;;;;-2.96;100.00;100897.84;1742268;82;20984;-63
2022/12/02 00:19:22;;;;;;;17.00;7.97;;;;;;;-2.95;100.00;100902.18;1742222;82;21532;-63
2022/12/02 00:21:49;;;;;;;16.37;7.80;;;;;;;-2.92;100.00;100894.36;1742636;82;21028;-64
2022/12/02 00:24:16;;;;;;;13.93;8.13;;;;;;;-2.93;100.00;100898.85;1742273;82;21040;-63
2022/12/02 00:26:43;;;;;;;19.02;8.50;;;;;;;-2.95;100.00;100894.19;1742544;82;20980;-63
2022/12/02 00:29:09;;;;;;;15.88;8.23;;;;;;;-2.94;100.00;100897.17;1742557;82;21535;-64
2022/12/02 00:31:35;;;;;;;14.35;7.70;;;;;;;-2.92;100.00;100901.02;1742667;82;20964;-65
2022/12/02 00:34:02;;;;;;;;;;;;;;;-2.94;100.00;100898.50;1746441;82;21111;-63
2022/12/02 00:36:30;;;;;;;15.98;7.15;;;;;;;-2.93;100.00;100894.85;1745890;82;20110;-64
2022/12/02 00:38:56;;;;;;;15.58;7.58;;;;;;;-2.97;100.00;100890.83;1745495;82;21020;-63
2022/12/02 00:41:23;;;;;;;;;;;;;;;-2.97;100.00;100890.83;1748042;82;21416;-63
2022/12/02 00:46:36;;;;;;;14.80;7.33;;;;;;;-2.95;100.00;100892.86;1745549;82;21055;-63
2022/12/02 00:49:09;;;;;;;14.45;7.85;;;;;;;-2.99;100.00;100883.50;1745581;82;21075;-63
2022/12/02 04:32:48;;;;;;;20.45;11.12;;;;;;;-4.96;100.00;100871.17;1784359;79;22985;-63
2022/12/02 04:35:15;;;;;;;17.57;9.10;;;;;;;-4.88;100.00;100869.94;1752459;82;21031;-64
2022/12/02 04:37:42;;;;;;;15.70;7.85;;;;;;;-4.63;100.00;100866.62;1735377;82;21051;-64
2022/12/02 04:40:10;;;;;;;15.45;7.53;;;;;;;-4.44;100.00;100869.69;1723128;83;20987;-64
2022/12/02 04:42:36;;;;;;;16.73;7.33;;;;;;;-4.33;100.00;100866.83;1745272;82;21053;-64
2022/12/02 04:45:03;;;;;;;14.87;7.25;;;;;;;-4.22;100.00;100863.13;1753202;81;21461;-65
2022/12/02 04:47:30;;;;;;;16.20;8.33;;;;;;;-4.14;100.00;100865.36;1723572;82;21007;-64
2022/12/02 04:49:57;;;;;;;19.92;8.28;;;;;;;-4.03;100.00;100865.64;1723663;82;20979;-65
2022/12/02 04:52:23;;;;;;;18.25;9.43;;;;;;;-3.96;100.00;100868.04;1752939;82;21038;-64
2022/12/02 04:54:50;;;;;;;18.73;8.65;;;;;;;-3.89;100.00;100861.62;1752780;82;21031;-65
2022/12/02 04:57:16;;;;;;;15.25;7.17;;;;;;;-3.86;100.00;100858.16;1751208;82;21141;-64
2022/12/02 04:59:43;;;;;;;13.65;6.62;;;;;;;-3.81;100.00;100857.72;1751709;82;20999;-65
2022/12/02 05:02:09;;;;;;;14.00;6.25;;;;;;;-3.76;100.00;100857.62;1750746;82;21055;-64
2022/12/02 05:04:36;;;;;;;;;;;;;;;-3.73;100.00;100852.47;1753085;82;21011;-65
2022/12/02 05:07:02;;;;;;;12.43;6.33;;;;;;;-3.72;100.00;100857.63;1750734;82;20134;-65
2022/12/02 05:09:29;;;;;;;12.25;6.50;;;;;;;-3.76;100.00;100853.63;1751139;82;21767;-64
2022/12/02 05:11:55;;;;;;;;;;;;;;;-3.73;100.00;100867.95;1755132;82;21074;-65
2022/12/02 05:14:22;;;;;;;12.30;6.00;;;;;;;-3.71;100.00;100863.30;1737420;82;20326;-65
2022/12/02 05:16:48;;;;;;;;;;;;;;;-3.73;100.00;100857.30;1724911;83;21003;-64
2022/12/02 05:19:15;;;;;;;12.73;6.40;;;;;;;-3.69;100.00;100857.34;1722593;83;20448;-64
2022/12/02 05:21:41;;;;;;;15.00;6.03;;;;;;;-3.73;100.00;100861.78;1738721;82;21075;-64
2022/12/02 05:24:08;;;;;;;14.33;6.80;;;;;;;-3.70;100.00;100856.16;1752315;82;20987;-66
2022/12/02 05:26:35;;;;;;;12.20;6.78;;;;;;;-3.67;100.00;100859.84;1743165;82;21006;-64
2022/12/02 05:29:01;;;;;;;14.90;6.92;;;;;;;-3.67;100.00;100858.02;1722757;83;21770;-65
2022/12/02 05:31:28;;;;;;;16.10;7.20;;;;;;;-3.64;100.00;100856.38;1746847;81;21066;-64
2022/12/02 05:33:56;;;;;;;13.28;6.97;;;;;;;-3.60;100.00;100861.73;1753645;81;21869;-65
2022/12/02 05:36:22;;;;;;;14.80;7.30;;;;;;;-3.57;100.00;100870.73;1752103;81;21082;-64
2022/12/02 05:38:49;;;;;;;14.43;7.22;;;;;;;-3.55;100.00;100871.94;1752172;82;21033;-64
2022/12/02 05:41:16;;;;;;;15.25;7.20;;;;;;;-3.57;100.00;100866.75;1752076;81;21074;-63
2022/12/02 05:43:42;;;;;;;13.80;6.65;;;;;;;-3.55;100.00;100871.44;1744981;81;21003;-63
2022/12/02 05:46:18;;;;;;;13.70;6.65;;;;;;;-3.51;100.00;100881.28;1721934;83;21114;-63
2022/12/02 05:48:47;;;;;;;14.20;6.50;;;;;;;-3.45;100.00;100874.50;1730579;82;21042;-63
2022/12/02 05:51:16;;;;;;;12.53;6.30;;;;;;;-3.46;100.00;100880.80;1730018;82;21082;-62
2022/12/02 05:53:45;;;;;;;11.33;6.03;;;;;;;-3.45;100.00;100881.16;1736309;82;21034;-62
2022/12/02 05:56:25;;;;;;;14.70;7.40;;;;;;;-3.47;100.00;100881.30;1730248;82;21525;-62
2022/12/02 05:58:52;;;;;;;14.45;7.78;;;;;;;-3.44;100.00;100886.34;1727123;82;21039;-63
2022/12/02 06:01:27;;;;;;;15.88;7.03;;;;;;;-3.43;100.00;100878.67;1734990;82;21031;-63
2022/12/02 06:03:53;;;;;;;14.87;6.95;;;;;;;-3.38;100.00;100884.38;1750137;82;21039;-62
2022/12/02 06:06:24;;;;;;;15.15;6.65;;;;;;;-3.38;100.00;100892.86;1750522;81;21091;-62
2022/12/02 06:08:53;;;;;;;14.18;7.00;;;;;;;-3.37;100.00;100891.39;1751898;82;21062;-62
2022/12/02 09:48:11;;;;;;;25.15;11.60;;;;;;;-2.35;100.00;100891.00;1875172;76;22776;-63
2022/12/02 09:50:38;;;;;;;18.62;9.65;;;;;;;-2.22;100.00;100891.88;1828288;78;21532;-63
2022/12/02 09:53:06;;;;;;;17.73;8.58;;;;;;;-1.90;100.00;100893.31;1829740;77;21089;-63
2022/12/02 09:55:33;;;;;;;17.23;9.60;;;;;;;-1.73;100.00;100903.02;1829966;78;21524;-63
2022/12/02 09:58:13;;;;;;;16.93;9.55;;;;;;;-1.56;100.00;100898.55;1800214;78;21042;-63
2022/12/02 10:00:40;;;;;;;17.48;9.60;;;;;;;-1.40;100.00;100892.38;1829818;78;20974;-64
2022/12/02 10:03:06;;;;;;;16.07;9.00;;;;;;;-1.24;100.00;100895.87;1830166;77;21532;-63
2022/12/02 10:05:33;;;;;;;16.65;9.65;;;;;;;-1.15;100.00;100890.03;1829997;78;20954;-64
2022/12/02 10:07:59;;;;;;;19.85;10.35;;;;;;;-1.01;100.00;100893.36;1830048;77;21063;-64
2022/12/02 10:10:30;;;;;;;16.20;8.90;;;;;;;-0.93;100.00;100898.70;1830159;78;20974;-64
2022/12/02 10:12:57;;;;;;;17.77;9.50;;;;;;;-0.84;100.00;100896.83;1829711;77;21092;-64
2022/12/02 10:15:26;;;;;;;18.92;10.23;;;;;;;-0.77;100.00;100889.80;1830044;78;21017;-64
2022/12/02 10:17:52;;;;;;;19.48;10.88;;;;;;;-0.72;100.00;100890.97;1829872;77;21005;-63
2022/12/02 10:20:26;;;;;;;18.05;10.30;;;;;;;-0.65;100.00;100885.77;1830081;78;21421;-64
2022/12/02 10:23:12;;;;;;;18.62;10.65;;;;;;;-0.61;100.00;100889.78;1829768;77;21548;-63
2022/12/02 10:25:45;;;;;;;19.48;9.50;;;;;;;-0.52;100.00;100888.23;1830006;78;20962;-63
2022/12/02 10:28:29;;;;;;;15.30;8.80;;;;;;;-0.47;100.00;100886.89;1827112;77;21026;-63
2022/12/02 10:31:11;;;;;;;17.15;9.75;;;;;;;-0.44;100.00;100886.04;1830049;78;21359;-64
2022/12/02 10:33:52;;;;;;;17.85;9.98;;;;;;;-0.39;100.00;100889.02;1829880;77;21041;-64
2022/12/02 11:05:02;;;;;;;15.18;7.22;;;;;;;-0.19;100.00;100874.73;1780369;80;21069;-64
2022/12/02 11:07:28;;;;;;;13.30;7.12;;;;;;;-0.24;100.00;100867.71;1781295;80;21054;-63
2022/12/02 11:09:55;;;;;;;14.50;7.58;;;;;;;-0.28;100.00;100873.08;1801615;79;21111;-63
2022/12/02 11:12:38;;;;;;;15.58;7.97;;;;;;;-0.25;100.00;100868.21;1807671;79;21491;-64
2022/12/02 11:15:26;;;;;;;14.30;7.83;;;;;;;-0.23;100.00;100863.54;1807904;79;21014;-63
2022/12/02 11:17:53;;;;;;;16.40;8.60;;;;;;;-0.21;100.00;100874.05;1789509;78;21533;-64
2022/12/02 11:20:42;;;;;;;16.70;8.53;;;;;;;-0.25;100.00;100869.55;1807949;79;21046;-64
2022/12/02 11:23:22;;;;;;;17.25;9.53;;;;;;;-0.26;100.00;100870.58;1807645;78;21087;-63
2022/12/02 11:25:54;;;;;;;16.65;8.98;;;;;;;-0.31;100.00;100874.77;1808021;79;21062;-64
2022/12/02 11:28:32;;;;;;;20.35;10.23;;;;;;;-0.32;100.00;100872.59;1785945;79;21031;-64
2022/12/02 11:31:17;;;;;;;18.40;9.40;;;;;;;-0.29;100.00;100876.78;1808493;79;21047;-64
2022/12/02 11:34:00;;;;;;;16.93;10.20;;;;;;;-0.28;100.00;100869.91;1808285;78;21054;-63
2022/12/02 11:36:24;;;;;;;18.73;10.32;;;;;;;-0.30;100.00;100862.56;1808767;79;21047;-63
2022/12/02 11:38:57;;;;;;;18.42;9.80;;;;;;;-0.28;100.00;100872.58;1809539;78;21097;-63
2022/12/02 11:41:25;;;;;;;19.27;10.60;;;;;;;-0.27;100.00;100868.06;1809553;79;20974;-63
2022/12/02 11:44:09;;;;;;;19.87;10.28;;;;;;;-0.29;100.00;100860.23;1808382;78;21124;-64
2022/12/02 11:46:54;;;;;;;21.93;11.18;;;;;;;-0.27;100.00;100861.38;1807706;79;21588;-64
2022/12/02 11:49:35;;;;;;;21.20;10.28;;;;;;;-0.28;100.00;100866.39;1808121;78;21125;-63
2022/12/02 11:52:12;;;;;;;18.65;11.53;;;;;;;-0.26;100.00;100863.05;1807617;78;21113;-64
2022/12/02 11:55:17;;;;;;;20.37;10.88;;;;;;;-0.25;100.00;100864.73;1785266;79;21098;-64
2022/12/02 11:57:55;;;;;;;19.40;10.58;;;;;;;-0.22;100.00;100865.72;1793315;78;21090;-63
2022/12/02 12:00:29;;;;;;;24.77;11.48;;;;;;;-0.19;100.00;100863.52;1808374;79;21085;-63
2022/12/02 12:03:17;;;;;;;20.88;11.00;;;;;;;-0.22;100.00;100862.54;1807667;78;21098;-66
2022/12/02 12:06:11;;;;;;;23.80;11.75;;;;;;;-0.24;100.00;100867.22;1774832;78;21042;-63
2022/12/02 12:08:43;;;;;;;22.27;12.35;;;;;;;-0.26;100.00;100870.58;1775007;79;21070;-63
2022/12/02 12:11:31;;;;;;;20.27;12.18;;;;;;;-0.27;100.00;100876.09;1775568;81;20978;-63
2022/12/02 12:14:15;;;;;;;25.10;12.80;;;;;;;-0.26;100.00;100879.11;1775352;79;21604;-63
2022/12/02 12:16:49;;;;;;;19.35;11.05;;;;;;;-0.25;100.00;100881.59;1775038;81;21035;-63
2022/12/02 12:19:19;;;;;;;22.45;12.40;;;;;;;-0.23;100.00;100876.92;1774995;79;21062;-63
2022/12/02 12:21:53;;;;;;;19.85;11.73;;;;;;;-0.23;100.00;100868.89;1776833;81;21474;-63
2022/12/02 12:24:25;;;;;;;20.40;11.38;;;;;;;-0.24;100.00;100873.06;1776735;79;21038;-63
2022/12/02 12:26:53;;;;;;;20.60;11.18;;;;;;;-0.29;100.00;100884.31;1777008;81;21003;-64
2022/12/02 12:29:23;;;;;;;22.37;10.78;;;;;;;-0.36;100.00;100867.29;1776819;79;21518;-64
2022/12/02 12:31:49;;;;;;;19.98;10.75;;;;;;;-0.36;100.00;100880.66;1776900;81;21010;-63
2022/12/02 12:34:16;;;;;;;24.75;11.97;;;;;;;-0.41;100.00;100881.67;1776951;79;21070;-63
2022/12/02 12:36:43;;;;;;;20.70;11.05;;;;;;;-0.44;100.00;100879.84;1776791;81;20975;-63
2022/12/02 12:39:09;;;;;;;18.30;10.50;;;;;;;-0.48;100.00;100885.20;1776823;79;21026;-63
2022/12/02 12:41:37;;;;;;;22.40;10.50;;;;;;;-0.54;100.00;100883.57;1776686;81;21019;-63
2022/12/02 12:44:04;;;;;;;;;;;;;;;-0.59;100.00;100884.58;1779600;79;21869;-63
2022/12/02 12:46:31;;;;;;;20.72;10.23;;;;;;;-0.61;100.00;100889.78;1776570;81;20112;-63
2022/12/02 12:48:57;;;;;;;20.85;10.70;;;;;;;-0.67;100.00;100883.25;1776573;79;21026;-63
2022/12/02 12:51:24;;;;;;;24.67;10.30;;;;;;;-0.67;100.00;100891.28;1777186;81;20987;-63
2022/12/02 12:53:50;;;;;;;19.62;10.43;;;;;;;-0.67;100.00;100880.58;1776852;79;21018;-63
2022/12/02 12:56:17;;;;;;;17.80;9.95;;;;;;;-0.67;100.00;100882.41;1781330;80;21015;-64
2022/12/02 12:58:45;;;;;;;17.73;9.30;;;;;;;-0.65;100.00;100881.77;1776567;79;21081;-63
2022/12/02 13:01:11;;;;;;;17.85;8.45;;;;;;;-0.64;100.00;100884.77;1777021;81;21620;-62
2022/12/02 13:03:38;;;;;;;18.10;8.65;;;;;;;-0.66;100.00;100880.08;1782411;79;21042;-62
2022/12/02 13:06:04;;;;;;;15.60;9.00;;;;;;;-0.66;100.00;100884.94;1809354;79;21446;-62
2022/12/02 13:08:31;;;;;;;14.98;9.50;;;;;;;-0.69;100.00;100882.61;1813670;78;21034;-62
2022/12/02 13:10:57;;;;;;;17.70;9.55;;;;;;;-0.72;100.00;100878.94;1809768;79;21469;-62
2022/12/02 13:13:24;;;;;;;21.35;10.78;;;;;;;-0.74;100.00;100882.77;1809438;78;21037;-62
2022/12/02 13:15:50;;;;;;;23.30;9.88;;;;;;;-0.76;100.00;100880.78;1809725;79;20983;-62
2022/12/02 13:18:17;;;;;;;19.67;9.53;;;;;;;-0.78;100.00;100886.81;1809608;78;21675;-62
2022/12/02 13:20:43;;;;;;;17.80;9.60;;;;;;;-0.82;100.00;100884.98;1809755;78;20974;-61
2022/12/02 13:23:11;;;;;;;23.05;9.78;;;;;;;-0.85;100.00;100886.64;1809298;78;21034;-61
2022/12/02 13:25:37;;;;;;;22.32;10.20;;;;;;;-0.87;100.00;100886.48;1809271;78;20970;-62
2022/12/02 13:28:04;;;;;;;19.60;9.90;;;;;;;-0.89;100.00;100882.66;1808114;78;21580;-61
2022/12/02 13:30:30;;;;;;;19.65;9.70;;;;;;;-0.88;100.00;100890.98;1786192;79;21027;-62
2022/12/02 13:32:57;;;;;;;21.68;10.13;;;;;;;-0.87;100.00;100878.47;1807917;78;21050;-62
2022/12/02 13:35:24;;;;;;;20.25;10.58;;;;;;;-0.84;100.00;100886.98;1807657;79;21058;-61
2022/12/02 13:37:50;;;;;;;;;;;;;;;-0.86;100.00;100884.99;1810524;78;21133;-62
2022/12/02 13:40:17;;;;;;;20.55;10.43;;;;;;;-0.85;100.00;100884.49;1807649;79;20133;-63
2022/12/02 13:42:44;;;;;;;24.85;11.33;;;;;;;-0.93;100.00;100885.34;1811886;78;21026;-61
2022/12/02 13:45:11;;;;;;;;;;;;;;;-0.93;100.00;100889.34;1810667;79;21046;-61
2022/12/02 13:47:37;;;;;;;25.20;11.48;;;;;;;-0.94;100.00;100892.17;1808043;78;20109;-62
2022/12/02 13:50:05;;;;;;;25.37;11.85;;;;;;;-0.96;100.00;100896.38;1807855;79;21609;-62
2022/12/02 13:52:32;;;;;;;28.23;12.55;;;;;;;-0.98;100.00;100894.84;1794731;79;21089;-62
2022/12/02 13:54:59;;;;;;;29.72;12.68;;;;;;;-0.97;100.00;100897.86;1784301;80;21046;-62
2022/12/02 13:57:25;;;;;;;;;;;;;;;-0.99;100.00;100899.89;1787000;80;21085;-62
2022/12/02 13:59:52;;;;;;;25.43;11.68;;;;;;;-0.98;100.00;100897.52;1784571;79;20131;-63
2022/12/02 14:02:18;;;;;;;21.23;11.63;;;;;;;-1.06;100.00;100898.36;1786003;80;21058;-62
2022/12/02 14:04:45;;;;;;;21.90;11.75;;;;;;;-1.06;100.00;100891.68;1784832;79;21035;-61
2022/12/02 14:07:11;;;;;;;22.62;11.53;;;;;;;-1.07;100.00;100902.90;1783626;80;20987;-62
2022/12/02 14:09:37;;;;;;;19.57;10.23;;;;;;;-1.08;100.00;100903.05;1783922;79;21580;-62
2022/12/02 14:12:04;;;;;;;23.65;11.78;;;;;;;-1.11;100.00;100894.87;1783909;80;21002;-62
2022/12/02 14:14:31;;;;;;;21.60;10.75;;;;;;;-1.10;100.00;100909.08;1783562;79;21058;-63
2022/12/02 15:11:04;;;;;;;76.72;27.95;;;;;;;-2.80;100.00;100927.77;1774856;79;22969;-63
2022/12/02 15:13:30;;;;;;;29.42;13.28;;;;;;;-2.71;100.00;100932.98;1729440;81;21078;-63
2022/12/02 15:15:57;;;;;;;28.67;15.13;;;;;;;-2.45;100.00;100938.30;1720560;82;21085;-63
2022/12/02 15:18:23;;;;;;;36.63;20.37;;;;;;;-2.32;100.00;100933.35;1720796;82;21838;-63
2022/12/02 15:20:50;;;;;;;48.42;20.20;;;;;;;-2.17;100.00;100933.59;1720619;83;21528;-63
2022/12/02 15:23:16;;;;;;;109.90;30.92;;;;;;;-2.05;100.00;100939.79;1720705;82;21022;-63
2022/12/02 15:25:42;;;;;;;60.52;23.45;;;;;;;-1.90;100.00;100936.50;1720760;83;21029;-63
2022/12/02 15:28:09;;;;;;;42.95;20.15;;;;;;;-1.81;100.00;100934.21;1720498;82;21555;-63
2022/12/02 15:30:35;;;;;;;27.15;15.60;;;;;;;-1.73;100.00;100932.88;1720790;82;21061;-63
2022/12/02 15:33:03;;;;;;;25.95;13.83;;;;;;;-1.68;100.00;100932.73;1720791;82;21085;-63
2022/12/02 15:35:29;;;;;;;26.57;13.45;;;;;;;-1.59;100.00;100931.73;1720991;83;21046;-63
2022/12/02 15:37:55;;;;;;;24.30;12.30;;;;;;;-1.55;100.00;100933.09;1720831;82;21026;-63
2022/12/02 15:40:22;;;;;;;33.55;18.55;;;;;;;-1.48;100.00;100932.42;1720671;82;21005;-63
2022/12/02 15:42:48;;;;;;;23.47;13.28;;;;;;;-1.46;100.00;100933.95;1720870;82;21110;-64
2022/12/02 15:45:15;;;;;;;23.70;12.00;;;;;;;-1.40;100.00;100935.95;1720609;83;21025;-63
2022/12/02 15:47:41;;;;;;;20.72;11.63;;;;;;;-1.35;100.00;100944.81;1692316;83;21109;-63
2022/12/02 15:50:09;;;;;;;20.77;10.35;;;;;;;-1.37;100.00;100940.11;1720462;82;21069;-63
2022/12/02 15:52:35;;;;;;;22.82;11.83;;;;;;;-1.35;100.00;100936.80;1720629;82;21578;-63
2022/12/02 15:55:02;;;;;;;21.20;11.95;;;;;;;-1.35;100.00;100939.47;1720706;83;21521;-63
2022/12/02 15:57:28;;;;;;;;;;;;;;;-1.37;100.00;100936.11;1693621;82;21276;-63
2022/12/02 15:59:57;;;;;;;23.70;12.13;;;;;;;-1.35;100.00;100936.30;1718819;83;20157;-62
2022/12/02 16:02:24;;;;;;;23.18;13.00;;;;;;;-1.41;100.00;100938.27;1719557;82;21002;-63
2022/12/02 16:04:51;;;;;;;18.73;10.82;;;;;;;-1.33;100.00;100934.78;1719072;82;21092;-64
2022/12/02 16:07:17;;;;;;;;;;;;;;;-1.33;100.00;100929.44;1721502;82;21097;-64
2022/12/02 16:09:44;;;;;;;19.05;10.72;;;;;;;-1.35;100.00;100928.78;1723623;83;20133;-63
2022/12/02 16:12:11;;;;;;;23.25;11.75;;;;;;;-1.42;100.00;100930.45;1731149;83;21813;-65
2022/12/02 16:14:37;;;;;;;;;;;;;;;-1.39;100.00;100935.45;1733697;83;21131;-63
2022/12/02 16:17:03;;;;;;;21.52;11.03;;;;;;;-1.37;100.00;100940.95;1731257;83;20119;-65
2022/12/02 16:19:30;;;;;;;23.67;12.82;;;;;;;-1.43;100.00;100938.95;1731050;81;21068;-65
2022/12/02 16:21:56;;;;;;;22.60;12.45;;;;;;;-1.43;100.00;100935.44;1731048;83;21484;-65
2022/12/02 16:24:22;;;;;;;28.20;15.95;;;;;;;-1.44;100.00;100939.95;1730552;81;21053;-66
2022/12/02 16:26:49;;;;;;;26.30;14.23;;;;;;;-1.42;100.00;100939.80;1730909;83;21010;-65
2022/12/02 16:29:15;;;;;;;25.52;14.65;;;;;;;-1.41;100.00;100936.09;1730755;81;21124;-64
2022/12/02 16:31:42;;;;;;;24.90;14.58;;;;;;;-1.37;100.00;100934.77;1726509;82;20993;-64
2022/12/02 16:34:08;;;;;;;;;;;;;;;-1.38;100.00;100930.45;1715009;81;21062;-64
2022/12/02 16:36:35;;;;;;;20.05;12.03;;;;;;;-1.36;100.00;100934.62;1714764;83;20927;-65
2022/12/02 16:39:01;;;;;;;22.35;11.78;;;;;;;-1.40;100.00;100937.78;1716314;81;21206;-64
2022/12/02 16:41:28;;;;;;;20.35;11.80;;;;;;;-1.38;100.00;100938.47;1713843;83;21071;-64
2022/12/02 16:43:55;;;;;;;21.15;10.55;;;;;;;-1.37;100.00;100936.11;1709894;83;21076;-64
2022/12/02 16:46:22;;;;;;;22.48;12.53;;;;;;;-1.35;100.00;100942.14;1710100;83;21087;-64
2022/12/02 16:48:48;;;;;;;19.17;11.10;;;;;;;-1.36;100.00;100941.80;1730084;81;21091;-65
2022/12/02 16:51:14;;;;;;;20.35;11.55;;;;;;;-1.35;100.00;100942.14;1729969;82;21527;-65
2022/12/02 16:53:41;;;;;;;21.65;11.63;;;;;;;-1.32;100.00;100939.97;1723550;81;21102;-64
2022/12/02 16:56:07;;;;;;;20.17;11.70;;;;;;;-1.31;100.00;100942.14;1698799;84;21094;-64
2022/12/02 16:58:34;;;;;;;26.87;11.30;;;;;;;-1.28;100.00;100943.14;1664869;86;21059;-65
2022/12/02 17:01:00;;;;;;;22.30;12.18;;;;;;;-1.25;100.00;100944.98;1664718;86;21374;-64
2022/12/02 17:03:27;;;;;;;21.12;11.88;;;;;;;-1.23;100.00;100946.98;1665060;86;21090;-64
2022/12/02 17:05:53;;;;;;;22.15;12.90;;;;;;;-1.24;100.00;100947.97;1665084;86;21114;-64
2022/12/02 17:08:19;;;;;;;22.62;12.88;;;;;;;-1.23;100.00;100948.31;1719322;82;21060;-64
2022/12/02 17:10:46;;;;;;;21.33;11.68;;;;;;;-1.19;100.00;100948.81;1685543;85;21511;-63
2022/12/02 17:13:12;;;;;;;21.33;11.25;;;;;;;-1.20;100.00;100953.81;1692562;83;21068;-63
2022/12/02 17:15:39;;;;;;;22.52;12.23;;;;;;;-1.18;100.00;100953.16;1753816;81;21093;-63
2022/12/02 17:18:06;;;;;;;23.75;11.78;;;;;;;-1.17;100.00;100961.00;1730349;82;21046;-64
2022/12/02 17:20:32;;;;;;;24.75;13.10;;;;;;;-1.18;100.00;100951.83;1724045;82;21085;-63
2022/12/02 17:22:58;;;;;;;21.25;12.07;;;;;;;-1.19;100.00;100952.33;1689512;85;21040;-63
2022/12/02 17:25:25;;;;;;;23.18;12.45;;;;;;;-1.22;100.00;100953.16;1724154;83;21070;-62
2022/12/02 17:27:51;;;;;;;19.67;11.30;;;;;;;-1.27;100.00;100945.63;1724210;82;21046;-63
2022/12/02 17:30:18;;;;;;;22.40;12.95;;;;;;;-1.32;100.00;100957.83;1724158;82;21066;-63
2022/12/02 17:32:44;;;;;;;23.60;12.88;;;;;;;-1.32;100.00;100956.49;1695943;83;21023;-63
2022/12/02 17:35:10;;;;;;;23.52;13.22;;;;;;;-1.34;100.00;100953.97;1724380;83;21081;-62
2022/12/02 17:37:37;;;;;;;24.77;13.28;;;;;;;-1.33;100.00;100954.81;1689411;83;21569;-62
2022/12/02 17:40:04;;;;;;;23.83;12.82;;;;;;;-1.38;100.00;100954.49;1724425;82;21047;-62
2022/12/02 17:42:31;;;;;;;23.87;13.18;;;;;;;-1.40;100.00;100958.66;1689173;85;21023;-63
2022/12/02 17:44:58;;;;;;;23.18;12.23;;;;;;;-1.44;100.00;100960.47;1724405;82;21093;-62
2022/12/02 17:55:59;;;;;;;25.35;12.13;;;;;;;-1.54;100.00;100960.13;1797975;78;23395;-63
2022/12/02 17:58:27;;;;;;;21.70;11.43;;;;;;;-1.63;100.00;100957.62;1756989;81;21051;-64
2022/12/02 18:00:54;;;;;;;24.12;12.20;;;;;;;-1.68;100.00;100966.11;1751480;81;21451;-63
2022/12/02 18:03:20;;;;;;;22.65;13.43;;;;;;;-1.71;100.00;100962.94;1751677;82;21528;-63
2022/12/02 18:05:47;;;;;;;;;;;;;;;-1.74;100.00;100959.26;1753885;82;21482;-64
2022/12/02 18:08:16;;;;;;;26.97;14.43;;;;;;;-1.79;100.00;100971.75;1745873;81;20131;-64
2022/12/02 18:10:43;;;;;;;28.27;16.07;;;;;;;-1.87;100.00;100961.53;1736925;82;21014;-64
2022/12/02 18:13:10;;;;;;;30.45;16.85;;;;;;;-1.89;100.00;100963.54;1734930;81;21529;-64
2022/12/02 18:15:37;;;;;;;;;;;;;;;-1.93;100.00;100962.19;1678452;83;21030;-65
2022/12/02 18:18:03;;;;;;;36.95;18.55;;;;;;;-1.98;100.00;100962.66;1671393;85;20147;-64
2022/12/02 18:20:30;;;;;;;31.60;19.40;;;;;;;-2.07;100.00;100961.81;1677897;85;21081;-64
2022/12/02 18:22:57;;;;;;;30.50;17.82;;;;;;;-2.05;100.00;100967.81;1697766;83;21054;-64
2022/12/02 18:25:23;;;;;;;30.10;17.57;;;;;;;-2.05;100.00;100964.30;1693534;84;21071;-64
2022/12/02 18:27:50;;;;;;;32.55;18.60;;;;;;;-2.04;100.00;100967.31;1694132;84;21101;-64
2022/12/02 18:30:17;;;;;;;32.15;16.97;;;;;;;-2.03;100.00;100969.00;1695636;84;21042;-63
2022/12/02 18:32:45;;;;;;;30.60;15.30;;;;;;;-2.02;100.00;100970.67;1691845;83;21078;-63
2022/12/02 18:35:12;;;;;;;26.90;16.12;;;;;;;-2.00;100.00;100971.34;1695816;84;21532;-64
2022/12/02 18:37:38;;;;;;;31.70;16.02;;;;;;;-2.02;100.00;100964.81;1696489;84;21110;-65
2022/12/02 18:40:07;;;;;;;23.55;13.48;;;;;;;-2.01;100.00;100970.50;1695076;84;21026;-63
2022/12/02 18:42:33;;;;;;;26.10;13.30;;;;;;;-2.02;100.00;100974.68;1696479;84;21070;-63
2022/12/02 18:45:00;;;;;;;24.90;13.60;;;;;;;-2.01;100.00;100975.84;1675602;83;21487;-63
2022/12/02 18:47:26;;;;;;;22.48;12.00;;;;;;;-2.02;100.00;100969.34;1683445;83;21521;-64
2022/12/02 18:49:52;;;;;;;23.22;13.30;;;;;;;-1.99;100.00;100968.17;1700346;82;21463;-65
2022/12/02 18:52:19;;;;;;;24.15;12.75;;;;;;;-1.99;100.00;100967.69;1696767;82;21030;-65
2022/12/02 18:54:45;;;;;;;23.90;13.43;;;;;;;-1.98;100.00;100968.00;1692560;82;21039;-64
2022/12/02 18:57:12;;;;;;;22.58;12.20;;;;;;;-1.99;100.00;100970.84;1671468;83;21004;-61
2022/12/02 18:59:38;;;;;;;23.45;13.10;;;;;;;-2.01;100.00;100969.16;1698883;82;21042;-64
2022/12/02 19:02:04;;;;;;;25.55;14.80;;;;;;;-1.94;100.00;100977.36;1699881;82;20954;-65
2022/12/02 19:04:31;;;;;;;23.02;13.32;;;;;;;-1.90;100.00;100976.54;1691623;82;21022;-65
2022/12/02 19:06:57;;;;;;;24.50;13.58;;;;;;;-1.87;100.00;100974.38;1690027;83;21034;-65
2022/12/02 19:09:24;;;;;;;25.55;13.53;;;;;;;-1.87;100.00;100977.55;1694322;84;21030;-64
2022/12/02 19:11:50;;;;;;;26.52;14.70;;;;;;;-1.83;100.00;100978.90;1675699;84;20983;-64
2022/12/02 19:14:17;;;;;;;27.90;15.88;;;;;;;-1.84;100.00;100978.06;1638279;85;21575;-64
2022/12/02 19:16:43;;;;;;;;;;;;;;;-1.82;100.00;100982.75;1704773;84;20982;-64
2022/12/02 19:19:10;;;;;;;26.52;14.33;;;;;;;-1.86;100.00;100977.40;1684894;84;20120;-64
2022/12/02 19:21:36;;;;;;;;;;;;;;;-1.90;100.00;100985.38;1687721;85;20990;-64
2022/12/02 19:24:03;;;;;;;28.17;13.95;;;;;;;-1.90;100.00;100978.71;1691564;84;20130;-65
2022/12/02 19:26:29;;;;;;;;;;;;;;;-1.94;100.00;100980.03;1689514;85;20972;-64
2022/12/02 19:28:56;;;;;;;29.27;15.08;;;;;;;-1.93;100.00;100984.38;1688795;83;20162;-65
2022/12/02 19:31:22;;;;;;;30.90;16.73;;;;;;;-1.99;100.00;100994.38;1698708;84;21058;-65
2022/12/02 19:33:49;;;;;;;33.90;16.77;;;;;;;-1.97;100.00;100990.19;1685269;85;21046;-65
2022/12/02 19:36:15;;;;;;;32.13;17.02;;;;;;;-1.96;100.00;100990.53;1684928;85;21046;-65
2022/12/02 19:38:41;;;;;;;32.58;17.02;;;;;;;-1.94;100.00;100993.87;1685127;85;21102;-65
2022/12/02 19:41:08;;;;;;;28.90;16.10;;;;;;;-1.95;100.00;100989.05;1685068;85;21075;-65
2022/12/02 19:43:34;;;;;;;31.87;16.73;;;;;;;-1.97;100.00;100986.19;1693390;84;21101;-64
2022/12/02 19:46:01;;;;;;;31.17;16.60;;;;;;;-1.96;100.00;100987.38;1713293;84;21046;-64
2022/12/02 19:48:27;;;;;;;30.62;16.73;;;;;;;-1.93;100.00;100991.05;1703620;84;21577;-65
2022/12/02 19:50:55;;;;;;;29.35;16.15;;;;;;;-1.91;100.00;100988.23;1687016;84;20998;-65
2022/12/02 19:53:21;;;;;;;27.90;15.53;;;;;;;-1.94;100.00;100992.53;1655061;84;21062;-65
2022/12/02 19:55:48;;;;;;;29.77;16.37;;;;;;;-1.96;100.00;100983.86;1706083;83;21530;-65
2022/12/02 19:58:14;;;;;;;29.85;17.23;;;;;;;-1.96;100.00;100986.03;1698068;84;21063;-65
2022/12/02 20:00:41;;;;;;;28.98;16.25;;;;;;;-1.93;100.00;100990.21;1697015;84;21082;-65
2022/12/02 20:03:07;;;;;;;30.60;17.52;;;;;;;-1.92;100.00;100995.89;1676141;84;21653;-64
2022/12/02 20:05:35;;;;;;;30.97;17.00;;;;;;;-1.89;100.00;100998.23;1684324;84;21018;-65
2022/12/02 20:08:01;;;;;;;;;;;;;;;-1.88;100.00;100987.91;1687402;84;21062;-65